Tikaboo Peak, Nevada Weather observations

Data are for 10 minute period ending at time listed.
 Day   Time   Solar   Ave.   Ave.  Ave.  Vector  Max.   Baro.   Total    
  of    of     Rad.   Air    Rel.  Wind   Wind   Wind  Press.  Precip.   
Year   Day            Temp.  Hum.  Speed  Dir.   Gust                    
2026   (PST)  Kw/m2    F      %     mph   deg.    mph    mb.     in.     
-------------------------------------------------------------------------
 124    5:20   0.04   45.5    48   14.2   240    19.1   756.7    0.00 
 124    5:30   0.05   45.1    50   11.9   226    17.1   756.9    0.00 
 124    5:40   0.08   45.2    50   13.3   223    19.7   756.9    0.00 
 124    5:50   0.14   45.6    49   15.6   225    20.5   756.8    0.00 
 124    6:00   0.17   45.8    49   16.6   234    21.4   756.7    0.00 
 124    6:10   0.22   46.2    48   17.3   241    21.7   756.8    0.00 
 124    6:20   0.26   46.2    48   16.4   244    21.2   756.7    0.00 
 124    6:30   0.30   46.1    48   15.8   254    23.6   756.7    0.00 
 124    6:40   0.34   46.2    48   18.0   253    26.1   756.7    0.00 
 124    6:50   0.38   45.9    47   19.5   254    26.3   756.8    0.00 
 124    7:00   0.42   46.1    47   16.0   254    23.2   756.6    0.00 
 124    7:10   0.46   46.5    46   17.7   248    24.3   756.9    0.00 
 124    7:20   0.50   46.2    46   17.9   254    25.1   756.9    0.00 
 124    7:30   0.54   46.5    46   17.0   254    25.3   756.9    0.00 
 124    7:40   0.58   47.2    45   18.2   248    27.5   757.0    0.00 
 124    7:50   0.61   47.4    45   16.4   246    25.1   756.9    0.00 
 124    8:00   0.65   47.3    46   19.5   245    31.0   756.8    0.00 
 124    8:10   0.69   47.3    45   20.0   251    31.2   756.9    0.00 
 124    8:20   0.72   47.2    45   21.0   251    28.9   756.8    0.00 
 124    8:30   0.76   47.7    44   17.5   252    27.2   756.8    0.00 
 124    8:40   0.76   48.7    42   16.0   255    27.8   756.9    0.00 
 124    8:50   0.65   49.5    41   11.6   282    24.4   756.9    0.00 
 124    9:00   0.69   49.4    42   10.2   285    22.3   756.9    0.00 
 124    9:10   0.76   50.5    39   11.2   278    24.6   756.9    0.00 
 124    9:20   0.95   50.6    39   12.4   304    25.2   756.8    0.00 
 124    9:30   0.99   51.8    37   13.9   304    30.5   756.8    0.00 
 124    9:40   0.85   52.0    36   12.0   265    24.0   756.9    0.00 
 124    9:50   0.96   50.7    36   12.4   259    26.1   757.0    0.00 
 124   10:00   0.87   51.8    34   12.6   291    22.0   756.9    0.00 
 124   10:10   1.07   52.3    33   11.1   303    24.5   756.9    0.00 
 124   10:20   1.08   51.9    33   13.3   263    26.7   757.0    0.00 
 124   10:30   0.99   53.1    31    9.3   296    20.0   756.9    0.00 
 124   10:40   0.75   52.8    31    9.0   269    22.6   756.9    0.00 
 124   10:50   1.06   52.4    31    7.8   305    23.5   756.7    0.00 
 124   11:00   1.14   53.7    29    8.8   260    24.5   756.8    0.00 
 124   11:10   1.18   55.1    28    8.9   305    20.9   756.6    0.00 
 124   11:20   100.00   55.3    29    9.0   286    22.4   756.7    0.00 
 124   11:30   100.00   53.2    31   12.3   303    28.8   756.6    0.00 
 124   11:40   100.00   51.0    33   13.5   313    30.4   756.5    0.00 
 124   11:50   100.00   51.3    32   14.1   309    25.7   756.6    0.00 
 124   12:00   100.00   52.0    32   11.7   322    24.7   756.6    0.00 
 124   12:10   100.00   52.7    30   11.0   319    27.9   756.5    0.00 
 124   12:20   100.00   52.7    30    7.4   335    20.2   756.6    0.00 
 124   12:30   100.00   53.2    30   15.2   338    28.8   756.4    0.00 
 124   12:40   100.00   53.3    30   13.8   330    27.2   756.5    0.00 
 124   12:50   100.00   52.9    30   14.1   321    30.5   756.4    0.00 
 124   13:00   1.07   54.0    28   14.3   326    28.9   756.4    0.00 
 124   13:10   0.97   54.4    25   13.0   337    22.5   756.3    0.00 
 124   13:20   1.10   55.0    24   13.9   335    24.4   756.3    0.00 
 124   13:30   1.08   56.6    21   10.7   345    21.8   756.3    0.00 
 124   13:40   0.92   55.7    21   15.4   333    27.8   756.2    0.00 
 124   13:50   0.91   54.6    21   17.6   331    24.5   756.2    0.00 
 124   14:00   0.76   54.6    21   14.8   331    27.5   756.1    0.00 
 124   14:10   0.98   54.7    21   10.8   318    24.3   756.0    0.00 
 124   14:20   0.93   57.1    20   10.4   338    25.0   756.0    0.00 
 124   14:30   1.03   56.8    21   14.3   339    24.8   755.9    0.00 
 124   14:40   0.93   58.6    20   10.8   342    24.3   755.9    0.00 
 124   14:50   0.92   57.6    19   14.0   339    27.5   755.8    0.00 
 124   15:00   0.83   56.9    19   13.9   345    25.9   755.8    0.00 
 124   15:10   0.60   56.0    20   14.6   332    23.7   755.7    0.00 
 124   15:20   0.22   54.2    23   10.4   335    18.9   755.8    0.00 
 124   15:30   0.25   51.9    26   12.3   337    22.9   755.7    0.00 
 124   15:40   0.69   54.3    26   10.8   356    19.9   755.7    0.00 
 124   15:50   0.40   54.3    25   12.8   340    21.5   755.8    0.00 
 124   16:00   0.34   54.4    26   10.2   341    21.5   755.9    0.00 
 124   16:10   0.32   53.8    28    8.4   353    15.0   755.9    0.00 
 124   16:20   0.29   51.7    31    8.6    10    15.5   755.9    0.00 
 124   16:30   0.57   53.6    28   11.0     6    19.9   755.9    0.00 
 124   16:40   0.40   54.0    27    9.5     9    16.7   755.9    0.00 
 124   16:50   0.39   52.9    28    7.8    10    18.9   755.9    0.00 
 124   17:00   0.32   53.2    28   10.2     4    16.4   755.9    0.00 
 124   17:10   0.27   52.4    28    9.0     7    18.9   755.8    0.00 
 124   17:20   0.21   51.4    28   11.4   358    18.9   755.8    0.00 
 124   17:30   0.17   51.0    27   11.3   358    21.9   755.8    0.00 
 124   17:40   0.14   50.5    26   11.4   356    17.5   755.8    0.00 
 124   17:50   0.11   49.5    26    9.8   359    15.6   755.8    0.00 
 124   18:00   0.09   48.5    26    9.7    22    16.0   755.6    0.00 
 124   18:10   0.06   47.7    26    8.9    16    15.5   755.7    0.00 
 124   18:20   0.04   47.4    28   11.1    18    20.8   755.6    0.00 
 124   18:30   0.02   46.7    30   12.0    31    21.9   755.6    0.00 
 124   18:40   0.01   46.0    30   12.1    34    20.8   755.8    0.00 
 124   18:50   0.00   45.5    31   12.8    30    19.5   755.8    0.00 
 124   19:00   0.00   45.0    32   10.7    33    16.4   755.9    0.00 
 124   19:10   0.00   44.5    33    9.9    34    17.9   756.0    0.00 
 124   19:20   0.00   44.2    33   12.2    25    17.8   756.0    0.00 
 124   19:30   0.00   43.9    34    8.7    34    14.8   756.1    0.00 
 124   19:40   0.00   43.6    35   12.3    26    21.2   756.1    0.00 
 124   19:50   0.00   43.2    36   11.2    35    18.9   756.2    0.00 
 124   20:00   0.00   43.0    37    9.4    44    16.0   756.2    0.00 
 124   20:10   0.00   42.7    38   10.1    35    16.7   756.4    0.00 
 124   20:20   0.00   42.4    38   11.8    15    19.3   756.5    0.00 
 124   20:30   0.00   42.1    37    9.0    30    14.9   756.6    0.00 
 124   20:40   0.00   41.7    37    7.1    17    12.6   756.7    0.00 
 124   20:50   0.00   41.5    37    7.6   356    12.6   756.7    0.00 
 124   21:00   0.00   41.3    36    8.3    18    12.2   756.6    0.00 
 124   21:10   0.00   41.2    36   10.0    23    15.2   756.7    0.00 
 124   21:20   0.00   41.1    36   10.6    18    15.1   756.7    0.00 
 124   21:30   0.00   40.7    37   12.8    14    16.2   756.6    0.00 
 124   21:40   0.00   40.5    38   11.8    19    15.1   756.6    0.00 
 124   21:50   0.00   40.3    38   11.5    17    17.8   756.6    0.00 
 124   22:00   0.00   40.1    39    9.6    31    13.7   756.5    0.00 
 124   22:10   0.00   39.8    40    9.1    36    13.5   756.6    0.00 
 124   22:20   0.00   39.7    40    8.3    25    11.3   756.6    0.00 
 124   22:30   0.00   39.6    40    8.7    37    10.5   756.5    0.00 
 124   22:40   0.00   39.4    42    8.9    34    12.8   756.5    0.00 
 124   22:50   0.00   39.3    42    9.1    27    15.6   756.6    0.00 
 124   23:00   0.00   39.2    43    8.6    10    11.9   756.5    0.00 
 124   23:10   0.00   39.0    45    6.6    49     9.3   756.6    0.00 
 124   23:20   0.00   38.3    50    6.7    52     8.8   756.6    0.00 
 124   23:30   0.00   37.8    53    6.9    54     9.3   756.6    0.00 
 124   23:40   0.00   37.5    56    7.7    52     9.7   756.5    0.00 
 124   23:50   0.00   37.4    55    5.7    51     6.9   756.5    0.00 
 125    0:00   0.00   37.5    55    6.2    52     7.8   756.5    0.00 
 125    0:10   0.00   37.4    56    5.2    63     6.7   756.5    0.00 
 125    0:20   0.00   37.0    57    6.7    64     9.7   756.3    0.00 
 125    0:30   0.00   36.3    61    5.8    69     9.7   756.3    0.00 
 125    0:40   0.00   36.4    60    2.2    80     5.5   756.1    0.00 
 125    0:50   0.00   36.3    60    2.5    77     5.6   756.0    0.00 
 125    1:00   0.00   36.2    60    3.2    74     5.0   755.9    0.00 
 125    1:10   0.00   36.6    48    4.3   188     6.4   755.8    0.00 
 125    1:20   0.00   37.1    53    4.6   156     7.2   755.7    0.00 
 125    1:30   0.00   36.8    54    4.7   162     9.6   755.6    0.00 
 125    1:40   0.00   36.6    54    9.3   195    12.1   755.5    0.00 
 125    1:50   0.00   36.4    58    6.8   191    11.6   755.6    0.00 
 125    2:00   0.00   35.8    63    3.6   140     8.2   755.6    0.00 
 125    2:10   0.00   35.7    60    4.6   187     8.7   755.6    0.00 
 125    2:20   0.00   35.6    61    5.1   171     8.8   755.5    0.00 
 125    2:30   0.00   35.4    66    3.4   104     4.6   755.5    0.00 
 125    2:40   0.00   35.1    68    6.1    85     8.2   755.4    0.00 
 125    2:50   0.00   34.7    69    6.6    80     8.3   755.4    0.00 
 125    3:00   0.00   35.0    63    5.8   128     8.1   755.4    0.00 
 125    3:10   0.00   35.2    63    5.5   127     8.4   755.4    0.00 
 125    3:20   0.00   34.9    62    6.4   152     9.8   755.3    0.00 
 125    3:30   0.00   35.0    60    7.6   156     9.9   755.3    0.00 
 125    3:40   0.00   34.8    60    7.3   159     9.6   755.4    0.00 
 125    3:50   0.00   34.5    62    3.6   161     6.8   755.4    0.00 
 125    4:00   0.00   34.4    62    2.4   147     4.7   755.4    0.00 
 125    4:10   0.00   34.2    65    6.0   230    10.2   755.3    0.00 
 125    4:20   0.00   34.5    66    8.8   254    14.0   755.2    0.00 
 125    4:30   0.00   34.2    68    9.7   253    15.9   755.2    0.00 
 125    4:40   0.00   34.2    70   13.2   252    18.1   755.2    0.00 
 125    4:50   0.01   34.1    70   12.4   251    16.8   755.2    0.00 
 125    5:00   0.02   34.2    70   13.8   246    17.6   755.2    0.00 
 125    5:10   0.04   34.3    70   10.7   249    17.5   755.4    0.00 

Return to Tikaboo Peak graphs page.


Western Regional Climate Center,wrcc@dri.edu